Time;durP1;ratioP1;P1;durP2;ratioP2;P2;SDS_P1;SDS_P2;PMS_P1;PMS_P2;Temp;Humidity;BMP_temperature;BMP_pressure;BME280_temperature;BME280_humidity;BME280_pressure;Samples;Min_cycle;Max_cycle;Signal;HPM_P1;HPM_P2
2022/03/26 00:01:40;;;;;;;57.63;33.65;;;;;;;;;;5005866;28;20036;-72
2022/03/26 00:04:06;;;;;;;59.40;34.20;;;;;;;;;;4999201;28;20026;-71
2022/03/26 00:06:32;;;;;;;57.60;32.47;;;;;;;;;;5000980;28;20072;-71
2022/03/26 00:08:59;;;;;;;60.53;35.13;;;;;;;;;;5003543;28;20030;-71
2022/03/26 00:11:25;;;;;;;57.97;34.17;;;;;;;;;;4999850;28;20033;-72
2022/03/26 00:13:51;;;;;;;56.55;32.65;;;;;;;;;;5010038;28;20077;-72
2022/03/26 00:16:17;;;;;;;63.78;34.17;;;;;;;;;;5002092;28;20457;-71
2022/03/26 00:18:43;;;;;;;58.30;34.42;;;;;;;;;;5003273;28;20080;-71
2022/03/26 00:21:10;;;;;;;60.90;36.05;;;;;;;;;;5004450;28;20029;-72
2022/03/26 00:23:36;;;;;;;61.47;33.80;;;;;;;;;;4998187;28;20029;-71
2022/03/26 00:26:02;;;;;;;63.50;35.85;;;;;;;;;;5002244;28;20166;-72
2022/03/26 00:28:28;;;;;;;66.32;33.53;;;;;;;;;;5000145;28;20041;-72
2022/03/26 00:30:55;;;;;;;63.15;34.50;;;;;;;;;;5002127;28;20049;-72
2022/03/26 00:33:21;;;;;;;67.30;37.22;;;;;;;;;;5003367;28;20407;-72
2022/03/26 00:35:47;;;;;;;65.80;36.45;;;;;;;;;;5002101;28;20026;-71
2022/03/26 00:38:13;;;;;;;64.40;37.22;;;;;;;;;;5002823;28;20042;-72
2022/03/26 00:40:41;;;;;;;65.72;36.63;;;;;;;;;;4999803;28;20033;-71
2022/03/26 00:43:07;;;;;;;60.53;35.83;;;;;;;;;;4992122;28;20022;-71
2022/03/26 00:45:35;;;;;;;68.93;36.50;;;;;;;;;;4998507;28;20384;-71
2022/03/26 00:48:01;;;;;;;79.20;38.95;;;;;;;;;;5001532;28;20036;-70
2022/03/26 00:50:27;;;;;;;69.82;39.10;;;;;;;;;;5003972;28;20034;-71
2022/03/26 00:52:53;;;;;;;64.05;36.55;;;;;;;;;;5013680;28;20041;-72
2022/03/26 00:55:19;;;;;;;70.43;38.28;;;;;;;;;;5002750;28;20030;-71
2022/03/26 00:57:46;;;;;;;72.28;40.58;;;;;;;;;;5000424;28;20091;-71
2022/03/26 01:00:14;;;;;;;69.20;36.95;;;;;;;;;;5001649;28;20041;-71
2022/03/26 01:02:40;;;;;;;77.10;40.60;;;;;;;;;;5009595;28;20093;-71
2022/03/26 01:05:07;;;;;;;73.90;40.55;;;;;;;;;;5003094;28;20030;-71
2022/03/26 01:07:33;;;;;;;73.40;38.55;;;;;;;;;;5001620;28;20033;-71
2022/03/26 01:09:59;;;;;;;66.82;37.97;;;;;;;;;;5001436;28;20232;-71
2022/03/26 01:12:26;;;;;;;69.75;37.05;;;;;;;;;;5004636;28;20041;-72
2022/03/26 01:14:52;;;;;;;72.65;39.38;;;;;;;;;;5006226;28;20065;-71
2022/03/26 01:17:19;;;;;;;73.63;39.28;;;;;;;;;;5006929;28;20026;-72
2022/03/26 01:19:46;;;;;;;75.53;39.88;;;;;;;;;;4997690;28;20120;-72
2022/03/26 01:22:12;;;;;;;73.18;37.83;;;;;;;;;;5002446;28;20134;-71
2022/03/26 01:24:38;;;;;;;67.07;35.97;;;;;;;;;;5001085;28;20383;-72
2022/03/26 01:27:06;;;;;;;74.82;39.17;;;;;;;;;;5005203;28;20026;-72
2022/03/26 01:29:32;;;;;;;69.72;37.20;;;;;;;;;;5005423;28;20071;-71
2022/03/26 01:31:59;;;;;;;69.25;38.05;;;;;;;;;;5006924;28;20040;-72
2022/03/26 01:34:26;;;;;;;66.95;38.03;;;;;;;;;;5009957;28;20048;-71
2022/03/26 01:36:53;;;;;;;72.30;39.50;;;;;;;;;;4996855;28;20086;-72
2022/03/26 01:39:20;;;;;;;68.25;37.53;;;;;;;;;;5001645;28;20022;-71
2022/03/26 01:41:47;;;;;;;68.70;40.13;;;;;;;;;;5000993;28;20029;-71
2022/03/26 01:44:14;;;;;;;76.38;39.28;;;;;;;;;;4997081;28;20718;-71
2022/03/26 01:46:53;;;;;;;63.60;38.22;;;;;;;;;;5002574;28;20488;-72
2022/03/26 01:49:20;;;;;;;68.47;38.47;;;;;;;;;;5000336;28;20034;-72
2022/03/26 01:51:46;;;;;;;71.35;37.45;;;;;;;;;;4996942;28;20492;-72
2022/03/26 01:54:13;;;;;;;70.60;39.80;;;;;;;;;;4996410;28;20092;-71
2022/03/26 01:56:39;;;;;;;70.78;41.25;;;;;;;;;;4996683;28;20757;-72
2022/03/26 01:59:06;;;;;;;77.05;42.75;;;;;;;;;;5003364;28;20030;-71
2022/03/26 02:01:33;;;;;;;74.22;39.08;;;;;;;;;;5006401;28;20381;-72
2022/03/26 02:04:00;;;;;;;71.78;39.58;;;;;;;;;;5001201;28;20027;-72
2022/03/26 02:06:44;;;;;;;71.05;37.45;;;;;;;;;;4998450;28;20084;-71
2022/03/26 02:09:11;;;;;;;74.72;38.03;;;;;;;;;;5005994;28;20034;-72
2022/03/26 02:11:38;;;;;;;76.28;39.97;;;;;;;;;;5012073;28;20042;-72
2022/03/26 02:14:07;;;;;;;76.60;39.00;;;;;;;;;;5004954;28;20327;-71
2022/03/26 02:16:33;;;;;;;66.45;37.42;;;;;;;;;;5003205;28;20148;-72
2022/03/26 02:19:00;;;;;;;88.90;39.42;;;;;;;;;;5008992;28;20053;-72
2022/03/26 02:21:26;;;;;;;76.05;38.17;;;;;;;;;;4999403;28;20026;-71
2022/03/26 02:23:52;;;;;;;75.65;40.53;;;;;;;;;;5003303;28;20511;-72
2022/03/26 02:26:25;;;;;;;72.80;40.45;;;;;;;;;;5002500;28;20045;-72
2022/03/26 02:28:52;;;;;;;69.05;36.05;;;;;;;;;;4997689;28;20058;-71
2022/03/26 02:31:18;;;;;;;69.03;38.40;;;;;;;;;;5005679;28;20392;-71
2022/03/26 02:33:45;;;;;;;70.07;38.03;;;;;;;;;;4998946;28;20030;-72
2022/03/26 02:36:11;;;;;;;69.03;37.83;;;;;;;;;;5009240;28;20438;-70
2022/03/26 02:38:38;;;;;;;69.05;37.00;;;;;;;;;;5009020;28;20109;-71
2022/03/26 02:41:04;;;;;;;79.05;38.25;;;;;;;;;;5002270;28;20034;-71
2022/03/26 02:43:30;;;;;;;70.40;36.85;;;;;;;;;;5005081;28;20034;-73
2022/03/26 02:45:57;;;;;;;74.88;38.00;;;;;;;;;;5000579;28;20072;-72
2022/03/26 02:48:23;;;;;;;64.53;35.15;;;;;;;;;;4997311;28;20526;-72
2022/03/26 02:50:49;;;;;;;70.28;37.25;;;;;;;;;;5005543;28;20140;-71
2022/03/26 02:53:15;;;;;;;75.35;37.50;;;;;;;;;;5000551;28;20048;-71
2022/03/26 02:55:41;;;;;;;79.15;41.22;;;;;;;;;;5014681;28;20108;-71
2022/03/26 02:58:08;;;;;;;73.40;40.58;;;;;;;;;;4998261;28;20102;-72
2022/03/26 03:00:35;;;;;;;76.72;39.00;;;;;;;;;;5001200;28;20041;-71
2022/03/26 03:03:01;;;;;;;82.93;41.28;;;;;;;;;;5007276;28;20495;-72
2022/03/26 03:05:27;;;;;;;88.88;42.75;;;;;;;;;;5007166;28;20018;-71
2022/03/26 03:07:53;;;;;;;73.80;39.47;;;;;;;;;;5004789;28;20096;-71
2022/03/26 03:10:20;;;;;;;76.70;41.67;;;;;;;;;;4997883;28;20030;-71
2022/03/26 03:12:47;;;;;;;79.32;43.00;;;;;;;;;;5000286;28;20034;-71
2022/03/26 03:15:13;;;;;;;81.57;44.00;;;;;;;;;;5004719;28;20030;-71
2022/03/26 03:17:40;;;;;;;78.32;40.95;;;;;;;;;;5004723;28;20044;-71
2022/03/26 03:20:08;;;;;;;80.63;40.50;;;;;;;;;;5003089;28;20026;-71
2022/03/26 03:22:34;;;;;;;75.70;38.70;;;;;;;;;;5002706;28;20026;-71
2022/03/26 03:25:00;;;;;;;68.82;37.15;;;;;;;;;;5004570;28;20030;-72
2022/03/26 03:27:26;;;;;;;84.13;41.60;;;;;;;;;;5004165;28;20034;-72
2022/03/26 03:29:53;;;;;;;83.35;42.00;;;;;;;;;;5003370;28;20036;-71
2022/03/26 03:32:19;;;;;;;81.78;43.25;;;;;;;;;;5003830;28;20053;-71
2022/03/26 03:34:45;;;;;;;81.35;40.75;;;;;;;;;;5005079;28;20029;-71
2022/03/26 03:37:11;;;;;;;74.82;40.80;;;;;;;;;;5008192;28;20033;-71
2022/03/26 03:39:37;;;;;;;80.93;40.38;;;;;;;;;;5005561;28;20018;-72
2022/03/26 03:42:04;;;;;;;82.63;40.85;;;;;;;;;;5006214;28;20026;-72
2022/03/26 03:44:30;;;;;;;84.18;41.83;;;;;;;;;;5008438;28;20029;-71
2022/03/26 03:46:56;;;;;;;78.03;40.50;;;;;;;;;;5008216;28;20033;-71
2022/03/26 03:49:23;;;;;;;79.65;41.67;;;;;;;;;;5000816;28;20038;-71
2022/03/26 03:51:49;;;;;;;77.55;42.20;;;;;;;;;;5007501;28;20057;-72
2022/03/26 03:54:16;;;;;;;77.10;39.90;;;;;;;;;;5003521;28;20069;-72
2022/03/26 03:56:42;;;;;;;75.65;40.22;;;;;;;;;;5003913;28;20030;-71
2022/03/26 03:59:08;;;;;;;80.05;41.38;;;;;;;;;;5002476;28;20026;-71
2022/03/26 04:01:35;;;;;;;87.90;42.53;;;;;;;;;;5007141;28;20033;-72
2022/03/26 04:04:01;;;;;;;77.68;40.33;;;;;;;;;;4999537;28;20516;-71
2022/03/26 04:06:27;;;;;;;80.50;38.88;;;;;;;;;;5007005;28;20526;-71
2022/03/26 04:08:53;;;;;;;82.55;43.42;;;;;;;;;;5005922;28;20041;-71
2022/03/26 04:11:19;;;;;;;83.38;41.78;;;;;;;;;;5001748;28;20034;-70
2022/03/26 04:13:46;;;;;;;82.25;42.35;;;;;;;;;;5005840;28;20038;-71
2022/03/26 04:16:12;;;;;;;86.60;42.58;;;;;;;;;;4993482;28;20041;-71
2022/03/26 04:18:39;;;;;;;82.53;42.53;;;;;;;;;;4999565;28;20500;-72
2022/03/26 04:21:05;;;;;;;93.38;44.75;;;;;;;;;;4996318;28;20056;-71
2022/03/26 04:23:31;;;;;;;96.15;46.53;;;;;;;;;;5002013;28;20026;-71
2022/03/26 04:25:57;;;;;;;86.68;44.42;;;;;;;;;;5002829;28;20034;-72
2022/03/26 04:28:23;;;;;;;79.03;42.63;;;;;;;;;;4994863;28;20515;-72
2022/03/26 04:30:49;;;;;;;84.70;42.25;;;;;;;;;;5004768;28;20065;-71
2022/03/26 04:33:15;;;;;;;82.93;42.47;;;;;;;;;;5002252;28;20026;-70
2022/03/26 04:35:42;;;;;;;78.53;41.15;;;;;;;;;;5004015;28;20033;-70
2022/03/26 04:38:08;;;;;;;81.72;43.88;;;;;;;;;;5006523;28;20030;-70
2022/03/26 04:40:34;;;;;;;85.22;43.25;;;;;;;;;;5003939;28;20058;-71
2022/03/26 04:43:00;;;;;;;83.85;43.33;;;;;;;;;;5000671;28;20428;-71
2022/03/26 04:45:26;;;;;;;85.85;43.67;;;;;;;;;;5003232;28;20133;-71
2022/03/26 04:47:52;;;;;;;94.95;43.47;;;;;;;;;;5000045;28;20045;-71
2022/03/26 04:50:19;;;;;;;91.93;46.97;;;;;;;;;;5010736;28;20427;-71
2022/03/26 04:52:45;;;;;;;92.53;45.50;;;;;;;;;;5001594;28;20034;-71
2022/03/26 04:55:12;;;;;;;98.53;46.97;;;;;;;;;;5002373;28;20359;-71
2022/03/26 04:57:39;;;;;;;94.47;44.60;;;;;;;;;;4996026;28;20034;-71
2022/03/26 05:00:06;;;;;;;93.15;46.00;;;;;;;;;;5002279;28;20397;-70
2022/03/26 05:02:32;;;;;;;92.43;48.45;;;;;;;;;;5003342;28;20641;-71
2022/03/26 05:04:58;;;;;;;94.15;48.65;;;;;;;;;;4997089;28;20488;-71
2022/03/26 05:10:09;;;;;;;96.75;46.40;;;;;;;;;;5000813;28;20100;-71
2022/03/26 05:12:35;;;;;;;97.30;47.85;;;;;;;;;;5001742;28;20092;-71
2022/03/26 05:15:01;;;;;;;102.05;49.97;;;;;;;;;;4998330;28;20415;-71
2022/03/26 05:17:27;;;;;;;97.43;46.70;;;;;;;;;;4998823;28;20039;-70
2022/03/26 05:19:53;;;;;;;93.18;46.75;;;;;;;;;;5006531;28;20041;-70
2022/03/26 05:22:19;;;;;;;101.32;49.13;;;;;;;;;;4999855;28;20026;-71
2022/03/26 05:24:45;;;;;;;104.32;49.03;;;;;;;;;;4999315;28;20025;-71
2022/03/26 05:27:12;;;;;;;94.82;46.97;;;;;;;;;;4998025;28;20034;-71
2022/03/26 05:29:38;;;;;;;96.57;46.70;;;;;;;;;;5001305;28;20041;-70
2022/03/26 05:32:04;;;;;;;88.75;43.70;;;;;;;;;;5001976;28;20780;-71
2022/03/26 05:34:30;;;;;;;101.55;46.97;;;;;;;;;;5003303;28;20022;-70
2022/03/26 05:36:56;;;;;;;102.95;47.78;;;;;;;;;;5004102;28;20030;-71
2022/03/26 05:39:22;;;;;;;99.95;49.00;;;;;;;;;;5006268;28;20081;-71
2022/03/26 05:41:48;;;;;;;95.90;46.42;;;;;;;;;;5010185;28;20033;-72
2022/03/26 05:44:14;;;;;;;102.05;49.20;;;;;;;;;;5010193;28;20104;-71
2022/03/26 05:46:41;;;;;;;104.75;49.83;;;;;;;;;;5001327;28;20033;-71
2022/03/26 05:49:07;;;;;;;100.82;49.63;;;;;;;;;;5004642;28;20033;-71
2022/03/26 05:51:33;;;;;;;99.10;47.35;;;;;;;;;;5007456;28;20395;-71
2022/03/26 05:53:59;;;;;;;106.00;49.85;;;;;;;;;;5011634;28;20048;-71
2022/03/26 05:56:25;;;;;;;99.70;47.30;;;;;;;;;;5005882;28;20153;-71
2022/03/26 05:58:51;;;;;;;103.85;49.20;;;;;;;;;;5004096;28;20022;-71
2022/03/26 06:01:17;;;;;;;97.40;47.70;;;;;;;;;;5005409;28;20036;-72
2022/03/26 06:03:43;;;;;;;109.35;49.92;;;;;;;;;;5013372;28;20018;-72
2022/03/26 06:06:09;;;;;;;106.35;50.90;;;;;;;;;;4999308;28;20587;-71
2022/03/26 06:08:36;;;;;;;100.93;46.05;;;;;;;;;;5001372;28;20147;-71
2022/03/26 06:11:02;;;;;;;98.82;48.05;;;;;;;;;;5006638;28;20467;-71
2022/03/26 06:13:28;;;;;;;101.50;48.35;;;;;;;;;;5002072;28;20498;-71
2022/03/26 06:15:54;;;;;;;93.93;47.25;;;;;;;;;;5004328;28;20038;-71
2022/03/26 06:18:20;;;;;;;92.10;44.20;;;;;;;;;;5006865;28;20026;-71
2022/03/26 06:20:46;;;;;;;102.43;46.45;;;;;;;;;;5007678;28;20121;-71
2022/03/26 06:23:12;;;;;;;100.00;46.70;;;;;;;;;;5001957;28;20026;-70
2022/03/26 06:25:38;;;;;;;91.40;45.90;;;;;;;;;;5004295;28;20492;-71
2022/03/26 06:28:05;;;;;;;97.05;44.92;;;;;;;;;;5000289;28;20113;-71
2022/03/26 06:30:31;;;;;;;97.07;45.95;;;;;;;;;;5007257;28;20041;-71
2022/03/26 06:32:57;;;;;;;93.07;45.33;;;;;;;;;;4999294;28;20101;-71
2022/03/26 06:35:24;;;;;;;89.07;43.35;;;;;;;;;;5004554;28;20045;-71
2022/03/26 06:37:50;;;;;;;94.15;43.75;;;;;;;;;;5003522;28;20026;-71
2022/03/26 06:40:16;;;;;;;98.65;45.50;;;;;;;;;;5006370;28;20538;-71
2022/03/26 06:42:42;;;;;;;89.75;44.17;;;;;;;;;;5002740;28;20026;-71
2022/03/26 06:45:08;;;;;;;90.20;41.88;;;;;;;;;;5009137;28;20022;-71
2022/03/26 06:47:34;;;;;;;92.57;44.00;;;;;;;;;;5006292;28;20104;-71
2022/03/26 06:50:00;;;;;;;90.25;44.15;;;;;;;;;;5013483;28;20041;-72
2022/03/26 06:52:26;;;;;;;89.95;43.78;;;;;;;;;;5008767;28;20030;-71
2022/03/26 06:54:53;;;;;;;100.43;43.97;;;;;;;;;;5010506;28;20033;-72
2022/03/26 06:57:19;;;;;;;82.53;43.78;;;;;;;;;;5009284;28;20030;-71
2022/03/26 06:59:45;;;;;;;93.68;47.53;;;;;;;;;;5010456;28;20026;-72
2022/03/26 07:02:12;;;;;;;95.68;44.60;;;;;;;;;;5011974;28;20101;-71
2022/03/26 07:04:38;;;;;;;93.85;44.63;;;;;;;;;;5011234;28;20091;-72
2022/03/26 07:07:05;;;;;;;92.18;43.38;;;;;;;;;;5012819;28;20709;-72
2022/03/26 07:09:31;;;;;;;89.07;42.55;;;;;;;;;;5009173;28;20411;-71
2022/03/26 07:11:57;;;;;;;88.30;43.15;;;;;;;;;;5011388;28;20045;-72
2022/03/26 07:14:23;;;;;;;91.32;46.80;;;;;;;;;;5010015;28;20050;-72
2022/03/26 07:16:49;;;;;;;92.18;44.95;;;;;;;;;;5010275;28;20033;-71
2022/03/26 07:19:16;;;;;;;86.43;41.67;;;;;;;;;;5006847;28;20057;-72
2022/03/26 07:21:42;;;;;;;80.85;42.42;;;;;;;;;;5009540;28;20433;-71
2022/03/26 07:24:08;;;;;;;84.60;42.35;;;;;;;;;;5004315;28;20038;-71
2022/03/26 07:26:34;;;;;;;92.07;44.05;;;;;;;;;;5009370;28;20479;-71
2022/03/26 07:29:00;;;;;;;83.10;41.97;;;;;;;;;;5011827;28;20037;-70
2022/03/26 07:31:26;;;;;;;83.78;41.08;;;;;;;;;;5011215;28;20021;-72
2022/03/26 07:33:52;;;;;;;80.60;40.20;;;;;;;;;;5009961;28;20041;-71
2022/03/26 07:36:18;;;;;;;73.45;38.42;;;;;;;;;;5007046;28;20030;-71
2022/03/26 07:38:45;;;;;;;81.93;42.38;;;;;;;;;;5007179;28;20064;-71
2022/03/26 07:41:11;;;;;;;80.43;40.95;;;;;;;;;;5003302;28;20022;-72
2022/03/26 07:43:37;;;;;;;79.97;40.83;;;;;;;;;;5006512;28;20053;-72
2022/03/26 07:46:04;;;;;;;79.32;39.50;;;;;;;;;;5007557;28;20032;-71
2022/03/26 07:48:30;;;;;;;84.65;40.88;;;;;;;;;;5007153;28;20518;-71
2022/03/26 07:50:56;;;;;;;84.00;41.28;;;;;;;;;;5006813;28;20527;-72
2022/03/26 07:53:27;;;;;;;78.03;40.90;;;;;;;;;;5008107;28;20080;-72
2022/03/26 07:55:54;;;;;;;89.40;43.47;;;;;;;;;;5009145;28;20030;-70
2022/03/26 07:58:20;;;;;;;82.60;40.50;;;;;;;;;;5008114;28;20029;-72
2022/03/26 08:00:46;;;;;;;84.00;39.67;;;;;;;;;;5010020;28;20018;-72
2022/03/26 08:03:13;;;;;;;79.10;39.80;;;;;;;;;;5008052;28;20018;-71
2022/03/26 08:05:39;;;;;;;80.78;41.85;;;;;;;;;;5008841;28;20411;-72
2022/03/26 08:08:06;;;;;;;81.15;40.05;;;;;;;;;;5006339;28;20140;-71
2022/03/26 08:10:32;;;;;;;83.57;41.72;;;;;;;;;;5003245;28;20030;-72
2022/03/26 08:12:58;;;;;;;78.45;40.13;;;;;;;;;;5009071;28;20034;-70
2022/03/26 08:15:24;;;;;;;76.25;40.03;;;;;;;;;;5005434;28;20527;-72
2022/03/26 08:17:50;;;;;;;78.53;41.28;;;;;;;;;;5002849;28;20056;-71
2022/03/26 08:20:16;;;;;;;79.53;41.45;;;;;;;;;;5007063;28;20045;-72
2022/03/26 08:22:43;;;;;;;76.38;40.83;;;;;;;;;;5009003;28;20164;-71
2022/03/26 08:26:19;;;;;;;84.63;43.30;;;;;;;;;;5004731;28;20033;-72
2022/03/26 08:27:58;;;;;;;76.85;41.70;;;;;;;;;;5006195;28;20184;-72
2022/03/26 08:30:24;;;;;;;77.68;42.63;;;;;;;;;;5007710;28;20033;-72
2022/03/26 08:32:50;;;;;;;80.82;40.78;;;;;;;;;;5005654;28;20022;-71
2022/03/26 08:35:16;;;;;;;70.03;40.38;;;;;;;;;;5009239;28;20061;-72
2022/03/26 08:37:42;;;;;;;74.60;40.33;;;;;;;;;;5008002;28;20120;-71
2022/03/26 08:40:09;;;;;;;87.05;42.42;;;;;;;;;;5008391;28;20026;-72
2022/03/26 08:42:35;;;;;;;83.20;41.85;;;;;;;;;;5021566;28;20022;-72
2022/03/26 08:45:01;;;;;;;73.88;40.25;;;;;;;;;;5002901;28;20396;-71
2022/03/26 08:47:27;;;;;;;83.22;40.97;;;;;;;;;;5008718;28;20346;-72
2022/03/26 08:49:53;;;;;;;74.22;39.13;;;;;;;;;;5008195;28;20026;-74
2022/03/26 08:52:21;;;;;;;78.18;41.70;;;;;;;;;;5011110;28;20404;-71
2022/03/26 08:54:48;;;;;;;76.53;39.22;;;;;;;;;;5004480;28;20026;-71
2022/03/26 08:57:14;;;;;;;77.88;40.90;;;;;;;;;;5009593;28;20161;-71
2022/03/26 08:59:41;;;;;;;77.72;42.88;;;;;;;;;;5008898;28;20527;-72
2022/03/26 09:02:07;;;;;;;71.63;38.65;;;;;;;;;;5009656;28;20030;-71
2022/03/26 09:04:34;;;;;;;79.28;37.45;;;;;;;;;;5008088;28;20511;-72
2022/03/26 09:07:00;;;;;;;80.25;39.85;;;;;;;;;;5009272;28;20041;-72
2022/03/26 09:09:26;;;;;;;70.55;38.30;;;;;;;;;;5012518;28;20503;-73
2022/03/26 09:11:53;;;;;;;71.55;38.72;;;;;;;;;;5011683;28;20033;-73
2022/03/26 09:14:19;;;;;;;78.05;38.47;;;;;;;;;;5010422;28;20034;-72
2022/03/26 09:16:45;;;;;;;79.53;39.45;;;;;;;;;;5010521;28;20443;-71
2022/03/26 09:19:11;;;;;;;64.05;36.15;;;;;;;;;;5011534;28;20025;-72
2022/03/26 09:21:37;;;;;;;68.95;37.08;;;;;;;;;;5011128;28;20085;-71
2022/03/26 09:24:04;;;;;;;71.75;34.70;;;;;;;;;;5009541;28;20026;-72
2022/03/26 09:26:30;;;;;;;71.50;37.05;;;;;;;;;;5009523;28;20109;-72
2022/03/26 09:28:56;;;;;;;64.32;34.72;;;;;;;;;;5024005;28;20141;-72
2022/03/26 09:31:22;;;;;;;63.28;33.58;;;;;;;;;;5009195;28;20026;-73
2022/03/26 09:33:49;;;;;;;61.20;34.63;;;;;;;;;;5012121;28;20373;-73
2022/03/26 09:36:16;;;;;;;64.55;34.00;;;;;;;;;;5008447;28;20085;-72
2022/03/26 09:38:42;;;;;;;64.30;34.38;;;;;;;;;;5011314;28;20025;-72
2022/03/26 09:41:09;;;;;;;67.35;37.15;;;;;;;;;;5008020;28;20030;-72
2022/03/26 09:43:35;;;;;;;62.55;34.13;;;;;;;;;;5005457;28;20025;-72
2022/03/26 09:46:01;;;;;;;63.35;34.45;;;;;;;;;;5009774;28;20026;-73
2022/03/26 09:48:27;;;;;;;65.15;34.47;;;;;;;;;;5010415;28;20096;-73
2022/03/26 09:50:54;;;;;;;58.70;31.23;;;;;;;;;;5004974;28;20041;-72
2022/03/26 09:53:20;;;;;;;56.78;30.25;;;;;;;;;;5002763;28;20737;-72
2022/03/26 09:55:46;;;;;;;65.05;31.45;;;;;;;;;;5004766;28;20065;-72
2022/03/26 09:58:13;;;;;;;58.50;32.28;;;;;;;;;;5004699;28;20571;-73
2022/03/26 10:00:39;;;;;;;55.15;32.00;;;;;;;;;;5000057;28;20053;-72
2022/03/26 10:03:05;;;;;;;59.38;29.90;;;;;;;;;;5007073;28;20523;-73
2022/03/26 10:05:31;;;;;;;58.17;30.58;;;;;;;;;;5002529;28;20050;-72
2022/03/26 10:07:58;;;;;;;56.03;29.77;;;;;;;;;;4998585;28;20551;-73
2022/03/26 10:10:25;;;;;;;54.67;29.77;;;;;;;;;;5006315;28;20034;-72
2022/03/26 10:12:51;;;;;;;49.63;29.13;;;;;;;;;;5004650;28;20094;-72
2022/03/26 10:15:18;;;;;;;51.03;26.20;;;;;;;;;;5004189;28;20050;-72
2022/03/26 10:17:44;;;;;;;52.08;28.42;;;;;;;;;;5006616;28;20109;-73
2022/03/26 10:20:14;;;;;;;57.60;31.98;;;;;;;;;;5003303;28;20036;-72
2022/03/26 10:22:48;;;;;;;46.60;28.02;;;;;;;;;;5001580;28;20510;-72
2022/03/26 10:25:14;;;;;;;44.88;24.42;;;;;;;;;;5001687;28;20036;-73
2022/03/26 10:27:42;;;;;;;47.10;25.75;;;;;;;;;;5005775;28;20053;-72
2022/03/26 10:30:08;;;;;;;45.20;23.73;;;;;;;;;;5007333;28;20035;-72
2022/03/26 10:32:41;;;;;;;36.53;23.25;;;;;;;;;;5001945;28;20021;-73
2022/03/26 10:35:15;;;;;;;45.85;24.23;;;;;;;;;;5003693;28;20353;-72
2022/03/26 10:37:42;;;;;;;44.40;24.17;;;;;;;;;;5004176;28;20030;-72
2022/03/26 10:40:20;;;;;;;39.05;21.30;;;;;;;;;;5003625;28;20105;-73
2022/03/26 10:42:52;;;;;;;37.70;21.58;;;;;;;;;;5002441;28;20549;-73
2022/03/26 10:45:18;;;;;;;40.92;22.52;;;;;;;;;;5017082;28;20734;-73
2022/03/26 10:47:44;;;;;;;39.70;21.27;;;;;;;;;;4998149;28;20026;-73
2022/03/26 10:50:14;;;;;;;37.38;21.40;;;;;;;;;;5002412;28;20460;-73
2022/03/26 10:52:41;;;;;;;39.83;22.13;;;;;;;;;;5008396;28;20080;-72
2022/03/26 10:55:13;;;;;;;33.00;19.45;;;;;;;;;;5001224;28;20030;-72
2022/03/26 10:57:39;;;;;;;36.78;20.85;;;;;;;;;;5018941;28;20181;-72
2022/03/26 11:00:05;;;;;;;38.65;22.70;;;;;;;;;;5010227;28;20709;-73
2022/03/26 11:02:32;;;;;;;38.42;22.77;;;;;;;;;;5000148;28;20030;-72
2022/03/26 11:04:59;;;;;;;44.05;23.80;;;;;;;;;;5002896;28;20026;-72
2022/03/26 11:07:27;;;;;;;38.00;21.48;;;;;;;;;;5001918;28;20041;-73
2022/03/26 11:09:53;;;;;;;38.58;20.88;;;;;;;;;;5005474;28;20040;-73
2022/03/26 11:12:19;;;;;;;40.47;20.35;;;;;;;;;;5001922;28;20069;-72
2022/03/26 11:14:46;;;;;;;35.88;19.95;;;;;;;;;;5002205;28;20095;-72
2022/03/26 11:17:31;;;;;;;33.17;18.80;;;;;;;;;;4999252;28;20076;-73
2022/03/26 11:20:17;;;;;;;35.97;20.52;;;;;;;;;;5002709;28;20026;-73
2022/03/26 11:23:01;;;;;;;36.95;20.02;;;;;;;;;;5004372;28;20038;-72
2022/03/26 11:25:27;;;;;;;33.40;19.00;;;;;;;;;;4998102;28;20030;-73
2022/03/26 11:28:04;;;;;;;37.30;18.63;;;;;;;;;;4998085;28;20026;-72
2022/03/26 11:30:30;;;;;;;34.10;19.60;;;;;;;;;;4998976;28;20104;-73
2022/03/26 11:33:08;;;;;;;35.47;20.92;;;;;;;;;;5005475;28;20049;-72
2022/03/26 11:35:34;;;;;;;35.88;18.20;;;;;;;;;;5007310;28;20391;-72
2022/03/26 11:38:02;;;;;;;36.17;18.38;;;;;;;;;;5017024;28;20042;-73
2022/03/26 11:40:41;;;;;;;34.53;20.30;;;;;;;;;;5014922;28;20033;-73
2022/03/26 11:43:07;;;;;;;32.28;18.85;;;;;;;;;;5002646;28;20033;-73
2022/03/26 11:51:20;;;;;;;33.53;19.42;;;;;;;;;;5001250;28;20501;-73
2022/03/26 11:53:56;;;;;;;34.60;18.55;;;;;;;;;;5019512;28;20044;-73
2022/03/26 11:56:23;;;;;;;40.95;17.23;;;;;;;;;;5000835;28;20034;-73
2022/03/26 11:59:10;;;;;;;34.00;18.92;;;;;;;;;;4998674;28;20522;-74
2022/03/26 12:01:40;;;;;;;30.02;17.48;;;;;;;;;;4997777;28;20129;-73
2022/03/26 12:04:13;;;;;;;30.75;17.50;;;;;;;;;;4997510;28;20026;-72
2022/03/26 12:06:53;;;;;;;29.50;19.38;;;;;;;;;;5007831;28;20084;-72
2022/03/26 12:09:33;;;;;;;32.03;18.35;;;;;;;;;;5012084;28;20133;-73
2022/03/26 12:12:05;;;;;;;33.92;17.63;;;;;;;;;;5008451;28;20057;-74
2022/03/26 12:14:35;;;;;;;31.63;17.40;;;;;;;;;;5002389;28;20057;-73
2022/03/26 12:17:03;;;;;;;31.70;17.70;;;;;;;;;;4993918;28;20133;-72
2022/03/26 12:19:49;;;;;;;27.23;16.15;;;;;;;;;;5005579;28;20039;-73
2022/03/26 12:22:26;;;;;;;25.65;16.48;;;;;;;;;;5001336;28;20033;-73
2022/03/26 12:24:53;;;;;;;24.77;13.00;;;;;;;;;;4997012;28;20065;-73
2022/03/26 12:27:20;;;;;;;25.08;14.88;;;;;;;;;;4996532;28;20029;-73
2022/03/26 12:29:46;;;;;;;32.20;17.40;;;;;;;;;;4998705;28;20022;-73
2022/03/26 12:32:13;;;;;;;27.60;15.45;;;;;;;;;;5002160;28;20037;-72
2022/03/26 12:35:02;;;;;;;28.02;15.65;;;;;;;;;;4998789;28;20026;-73
2022/03/26 12:37:29;;;;;;;29.25;15.25;;;;;;;;;;4997435;28;20620;-72
2022/03/26 12:39:55;;;;;;;27.92;14.55;;;;;;;;;;4999772;28;20076;-73
2022/03/26 12:42:23;;;;;;;24.38;13.80;;;;;;;;;;4996796;28;20041;-72
2022/03/26 12:44:49;;;;;;;26.52;12.95;;;;;;;;;;4997971;28;20068;-74
2022/03/26 12:47:19;;;;;;;25.63;13.60;;;;;;;;;;4999744;28;20137;-74
2022/03/26 12:49:49;;;;;;;23.52;15.02;;;;;;;;;;4998016;28;20972;-73
2022/03/26 12:52:19;;;;;;;19.67;13.00;;;;;;;;;;4995386;28;20034;-74
2022/03/26 12:54:52;;;;;;;24.38;13.85;;;;;;;;;;5000934;28;20534;-73
2022/03/26 12:57:18;;;;;;;23.27;13.02;;;;;;;;;;5004266;28;20559;-74
2022/03/26 12:59:54;;;;;;;19.48;11.98;;;;;;;;;;5005050;28;20018;-73
2022/03/26 13:02:20;;;;;;;20.70;11.70;;;;;;;;;;5003559;28;20030;-74
2022/03/26 13:04:51;;;;;;;20.27;12.43;;;;;;;;;;5005387;28;20021;-74
2022/03/26 13:07:17;;;;;;;23.77;13.82;;;;;;;;;;5001776;28;20026;-72
2022/03/26 13:09:43;;;;;;;22.45;13.85;;;;;;;;;;5004700;28;20042;-74
2022/03/26 13:12:09;;;;;;;26.48;14.80;;;;;;;;;;5002900;28;20038;-73
2022/03/26 13:14:35;;;;;;;23.80;13.88;;;;;;;;;;5003226;28;20041;-73
2022/03/26 13:17:01;;;;;;;23.35;12.63;;;;;;;;;;5003039;28;20030;-72
2022/03/26 13:19:33;;;;;;;20.58;12.88;;;;;;;;;;5003945;28;20109;-73
2022/03/26 13:22:02;;;;;;;21.23;13.10;;;;;;;;;;5003293;28;20101;-73
2022/03/26 13:24:28;;;;;;;16.42;10.85;;;;;;;;;;5005298;28;20018;-74
2022/03/26 13:27:00;;;;;;;21.50;10.75;;;;;;;;;;5002003;28;20080;-72
2022/03/26 13:29:30;;;;;;;17.17;11.05;;;;;;;;;;5001947;28;20081;-74
2022/03/26 13:31:58;;;;;;;24.63;12.45;;;;;;;;;;5005285;28;20092;-74
2022/03/26 13:34:31;;;;;;;20.08;12.75;;;;;;;;;;5005248;28;20427;-73
2022/03/26 13:37:07;;;;;;;24.20;12.52;;;;;;;;;;4995941;28;20022;-72
2022/03/26 13:39:33;;;;;;;24.15;12.48;;;;;;;;;;4999671;28;20037;-73
2022/03/26 13:42:10;;;;;;;20.38;10.30;;;;;;;;;;5006037;28;20093;-74
2022/03/26 13:44:36;;;;;;;19.67;10.95;;;;;;;;;;4998359;28;20033;-75
2022/03/26 13:47:03;;;;;;;22.02;11.60;;;;;;;;;;5005715;28;20053;-73
2022/03/26 13:49:33;;;;;;;21.02;11.60;;;;;;;;;;5002997;28;20068;-75
2022/03/26 13:52:00;;;;;;;20.25;10.77;;;;;;;;;;5004527;28;20027;-73
2022/03/26 13:54:28;;;;;;;19.33;10.90;;;;;;;;;;4999843;28;20283;-74
2022/03/26 13:56:56;;;;;;;21.40;13.63;;;;;;;;;;5008964;28;20454;-73
2022/03/26 13:59:24;;;;;;;24.75;14.30;;;;;;;;;;4995710;28;20034;-76
2022/03/26 14:01:52;;;;;;;22.25;13.60;;;;;;;;;;5004560;28;20105;-74
2022/03/26 14:04:25;;;;;;;26.63;14.50;;;;;;;;;;4992711;28;20030;-74
2022/03/26 14:06:52;;;;;;;27.25;15.63;;;;;;;;;;5007937;28;20026;-74
2022/03/26 14:09:24;;;;;;;30.20;15.88;;;;;;;;;;5003822;28;20571;-74
2022/03/26 14:11:51;;;;;;;24.58;14.18;;;;;;;;;;5000263;28;20395;-74
2022/03/26 14:14:17;;;;;;;30.83;14.88;;;;;;;;;;4995329;28;20508;-74
2022/03/26 14:16:43;;;;;;;21.23;13.05;;;;;;;;;;5008542;28;20080;-73
2022/03/26 14:19:09;;;;;;;21.23;14.32;;;;;;;;;;5007105;28;20100;-73
2022/03/26 14:21:36;;;;;;;24.15;14.93;;;;;;;;;;5006806;28;20026;-75
2022/03/26 14:24:02;;;;;;;25.02;15.57;;;;;;;;;;5007107;28;20376;-73
2022/03/26 14:26:28;;;;;;;24.00;14.23;;;;;;;;;;5007147;28;20365;-74